Time;durP1;ratioP1;P1;durP2;ratioP2;P2;SDS_P1;SDS_P2;PMS_P1;PMS_P2;Temp;Humidity;BMP_temperature;BMP_pressure;BME280_temperature;BME280_humidity;BME280_pressure;Samples;Min_cycle;Max_cycle;Signal;HPM_P1;HPM_P2
2022/08/12 00:44:41;;;;;;;4.97;4.53;;;;;;;18.69;55.15;100636.94;5091543;28;20397;-63
2022/08/12 00:47:09;;;;;;;6.18;4.78;;;;;;;18.67;55.32;100640.16;5076778;28;20049;-63
2022/08/12 00:49:37;;;;;;;7.25;4.88;;;;;;;18.63;55.37;100636.41;5071449;28;20052;-62
2022/08/12 00:52:06;;;;;;;5.20;4.63;;;;;;;18.60;55.09;100639.97;5071357;28;20055;-62
2022/08/12 00:54:40;;;;;;;6.20;4.23;;;;;;;18.57;55.27;100641.50;5073754;28;20056;-62
2022/08/12 00:57:10;;;;;;;4.50;4.10;;;;;;;18.53;55.77;100634.97;5081053;28;20485;-61
2022/08/12 00:59:43;;;;;;;5.00;4.50;;;;;;;18.53;55.75;100631.34;5074486;28;20052;-62
2022/08/12 01:02:22;;;;;;;5.18;4.38;;;;;;;18.51;55.75;100637.31;5074946;28;20060;-62
2022/08/12 01:13:14;;;;;;;5.28;4.55;;;;;;;18.34;56.01;100643.34;5082171;28;20059;-62
2022/08/12 01:15:41;;;;;;;;;;;;;;;18.27;56.04;100638.34;5075086;28;20476;-62
2022/08/12 01:18:09;;;;;;;6.03;4.63;;;;;;;18.22;56.20;100647.06;5074753;28;19920;-63
2022/08/12 01:20:41;;;;;;;5.22;4.72;;;;;;;18.20;56.53;100643.78;5074671;28;20052;-63
2022/08/12 01:23:23;;;;;;;7.65;5.20;;;;;;;18.18;56.54;100640.50;5074593;28;20512;-62
2022/08/12 01:25:53;;;;;;;5.63;4.75;;;;;;;18.16;56.58;100638.03;5091513;28;20051;-62
2022/08/12 01:28:24;;;;;;;6.03;4.75;;;;;;;18.17;56.69;100636.06;5081239;28;20421;-62
2022/08/12 01:30:51;;;;;;;4.85;4.45;;;;;;;18.16;56.62;100638.03;5074350;28;20079;-62
2022/08/12 01:33:22;;;;;;;5.65;4.88;;;;;;;18.13;56.89;100635.13;5074435;28;20378;-62
2022/08/12 01:35:58;;;;;;;9.15;5.18;;;;;;;18.09;56.84;100637.84;5074343;28;20060;-63
2022/08/12 01:38:26;;;;;;;6.82;5.10;;;;;;;18.02;56.87;100635.66;5078454;28;20056;-63
2022/08/12 01:40:58;;;;;;;6.43;4.97;;;;;;;17.99;57.08;100632.75;5094497;28;20067;-62
2022/08/12 01:43:27;;;;;;;5.15;4.65;;;;;;;17.96;57.19;100636.28;5085115;28;20056;-63
2022/08/12 01:46:03;;;;;;;5.30;4.80;;;;;;;17.93;57.29;100634.19;5074062;28;20059;-63
2022/08/12 01:48:49;;;;;;;7.82;5.00;;;;;;;17.90;57.55;100641.38;5074131;28;20392;-63
2022/08/12 01:51:39;;;;;;;7.78;5.25;;;;;;;17.84;57.60;100632.34;5073249;28;20056;-61
2022/08/12 01:54:11;;;;;;;6.50;5.57;;;;;;;17.80;57.88;100637.03;5067194;28;20049;-63
2022/08/12 01:56:48;;;;;;;5.65;5.03;;;;;;;17.77;57.85;100636.94;5073800;28;20060;-62
2022/08/12 02:02:10;;;;;;;5.22;4.72;;;;;;;17.71;58.08;100624.28;5080312;28;20064;-64
2022/08/12 02:13:47;;;;;;;5.50;5.00;;;;;;;17.51;58.48;100637.38;5074017;28;20059;-62
2022/08/12 02:16:29;;;;;;;5.90;5.28;;;;;;;17.50;58.39;100638.59;5073681;28;20049;-63
2022/08/12 02:19:10;;;;;;;5.78;5.18;;;;;;;17.47;58.66;100630.84;5064484;28;20052;-63
2022/08/12 02:21:41;;;;;;;5.72;5.00;;;;;;;17.43;58.46;100634.38;5079011;28;20051;-63
2022/08/12 02:24:13;;;;;;;5.65;5.05;;;;;;;17.40;58.70;100640.72;5088785;28;20424;-63
2022/08/12 02:26:44;;;;;;;5.65;5.07;;;;;;;17.40;58.81;100645.53;5073631;28;20052;-62
2022/08/12 02:29:13;;;;;;;6.75;5.13;;;;;;;17.36;58.89;100645.41;5073316;28;20066;-61
2022/08/12 02:31:44;;;;;;;8.10;5.25;;;;;;;17.36;58.63;100642.59;5073514;28;20064;-62
2022/08/12 02:34:14;;;;;;;5.63;4.78;;;;;;;17.33;58.77;100637.69;5073521;28;20053;-63
2022/08/12 02:36:44;;;;;;;5.68;5.18;;;;;;;17.30;58.79;100646.03;5075724;28;20044;-63
2022/08/12 02:39:14;;;;;;;6.03;5.40;;;;;;;17.28;58.95;100652.00;5092233;28;20054;-62
2022/08/12 02:41:45;;;;;;;6.03;5.43;;;;;;;17.24;59.05;100651.09;5072974;28;20370;-62
2022/08/12 02:44:18;;;;;;;5.97;5.40;;;;;;;17.28;59.08;100649.19;5073404;28;20064;-63
2022/08/12 02:46:49;;;;;;;5.53;4.90;;;;;;;17.25;59.06;100645.09;5073555;28;20056;-62
2022/08/12 02:49:22;;;;;;;6.18;5.57;;;;;;;17.22;58.94;100650.63;5073799;28;20053;-63
2022/08/12 02:51:50;;;;;;;6.95;5.53;;;;;;;17.18;58.89;100641.25;5082386;28;20067;-62
2022/08/12 02:54:18;;;;;;;5.97;5.38;;;;;;;17.17;59.27;100653.69;5093366;28;20491;-63
2022/08/12 02:56:45;;;;;;;5.65;5.10;;;;;;;17.12;59.28;100640.69;5074819;28;20049;-63
2022/08/12 02:59:16;;;;;;;8.30;6.32;;;;;;;17.09;59.75;100640.56;5072560;28;20056;-62
2022/08/12 03:01:50;;;;;;;6.90;5.35;;;;;;;17.06;59.52;100644.91;5072085;28;20052;-63
2022/08/12 03:04:25;;;;;;;6.90;5.72;;;;;;;17.04;59.35;100642.44;5070928;28;20500;-61
2022/08/12 03:07:02;;;;;;;5.80;5.30;;;;;;;17.02;59.46;100639.16;5076496;28;20052;-63
2022/08/12 03:09:33;;;;;;;5.65;5.13;;;;;;;16.97;59.51;100639.41;5073365;28;20067;-63
2022/08/12 03:12:06;;;;;;;6.45;5.47;;;;;;;16.93;59.46;100644.09;5072466;28;20056;-63
2022/08/12 03:14:36;;;;;;;6.00;5.45;;;;;;;16.94;59.40;100644.91;5072793;28;20049;-63
2022/08/12 03:17:13;;;;;;;6.57;5.88;;;;;;;16.93;59.73;100649.72;5071677;28;20048;-64
2022/08/12 03:19:44;;;;;;;6.45;5.05;;;;;;;16.93;59.44;100638.47;5072175;28;20052;-63
2022/08/12 03:22:13;;;;;;;8.07;5.78;;;;;;;16.88;59.50;100647.16;5081224;28;20063;-63
2022/08/12 03:24:43;;;;;;;8.27;7.32;;;;;;;16.86;59.64;100640.25;5092630;28;20481;-62
2022/08/12 03:27:14;;;;;;;8.82;6.93;;;;;;;16.78;59.99;100645.63;5079159;28;20049;-63
2022/08/12 03:29:46;;;;;;;8.93;7.40;;;;;;;16.74;59.73;100641.06;5072335;28;20055;-62
2022/08/12 03:32:13;;;;;;;7.80;6.07;;;;;;;16.73;59.97;100628.97;5072296;28;20060;-63
2022/08/12 03:34:42;;;;;;;6.63;6.03;;;;;;;16.73;59.71;100637.41;5086366;28;20055;-62
2022/08/12 03:37:10;;;;;;;6.22;5.63;;;;;;;16.73;59.70;100648.66;5082076;28;20052;-63
2022/08/12 03:39:43;;;;;;;7.90;6.17;;;;;;;16.69;59.66;100641.28;5072328;28;20053;-63
2022/08/12 03:42:21;;;;;;;6.20;5.60;;;;;;;16.67;59.87;100646.44;5071754;28;20473;-63
2022/08/12 04:01:41;;;;;;;6.40;5.75;;;;;;;16.42;60.93;100657.66;5052914;28;20552;-63
2022/08/12 04:04:09;;;;;;;7.35;6.30;;;;;;;16.41;61.44;100659.66;5051288;28;20049;-63
2022/08/12 04:06:43;;;;;;;6.80;6.00;;;;;;;16.42;61.12;100652.88;5051890;28;20060;-63
2022/08/12 04:09:11;;;;;;;13.30;6.32;;;;;;;16.42;60.94;100661.31;5052139;28;20049;-63
2022/08/12 04:14:27;;;;;;;6.18;5.57;;;;;;;16.47;60.99;100663.06;5054960;28;20513;-62
2022/08/12 04:16:56;;;;;;;6.10;5.35;;;;;;;16.48;60.82;100661.06;5040268;28;20049;-62
2022/08/12 04:19:25;;;;;;;6.38;5.70;;;;;;;16.51;60.66;100664.00;5030291;28;20058;-62
2022/08/12 04:21:54;;;;;;;6.10;5.45;;;;;;;16.56;60.61;100660.94;5031434;28;20060;-62
2022/08/12 04:24:24;;;;;;;6.45;5.85;;;;;;;16.58;60.35;100664.22;5046952;28;20411;-62
2022/08/12 04:26:52;;;;;;;7.85;6.13;;;;;;;16.59;60.35;100667.88;5051383;28;20049;-62
2022/08/12 04:29:20;;;;;;;7.28;6.57;;;;;;;16.58;60.06;100664.22;5055580;28;20059;-62
2022/08/12 04:31:48;;;;;;;7.32;6.15;;;;;;;16.55;60.20;100662.13;5034767;28;20124;-62
2022/08/12 04:34:17;;;;;;;8.70;6.55;;;;;;;16.56;60.32;100669.38;5047414;28;20500;-63
2022/08/12 04:36:45;;;;;;;7.80;6.15;;;;;;;16.53;60.35;100664.47;5055632;28;20049;-62
2022/08/12 04:39:13;;;;;;;8.52;6.28;;;;;;;16.52;60.39;100659.19;5055505;28;20052;-63
2022/08/12 04:41:41;;;;;;;10.27;6.32;;;;;;;16.54;60.33;100665.28;5048550;28;20387;-63
2022/08/12 04:44:09;;;;;;;6.80;6.13;;;;;;;16.57;60.27;100665.41;5042965;28;20049;-63
2022/08/12 04:46:37;;;;;;;7.25;6.45;;;;;;;16.57;60.50;100665.41;5034967;28;20046;-62
2022/08/12 04:49:05;;;;;;;8.07;6.15;;;;;;;16.55;60.36;100664.94;5040961;28;20079;-63
2022/08/12 04:51:34;;;;;;;7.13;6.13;;;;;;;16.56;60.33;100662.94;5055554;28;20049;-62
2022/08/12 04:54:03;;;;;;;7.22;6.32;;;;;;;16.56;60.54;100669.38;5054883;28;20053;-63
2022/08/12 04:56:31;;;;;;;9.17;6.90;;;;;;;16.55;60.63;100669.75;5055230;28;20057;-62
2022/08/12 04:58:59;;;;;;;6.75;5.82;;;;;;;16.57;60.59;100670.22;5047698;28;20050;-63
2022/08/12 05:01:29;;;;;;;7.13;6.43;;;;;;;16.62;60.67;100664.38;5074353;28;20052;-63
2022/08/12 05:03:58;;;;;;;8.55;5.80;;;;;;;16.63;60.58;100666.81;5074707;28;20056;-63
2022/08/12 05:06:26;;;;;;;6.90;5.53;;;;;;;16.68;60.61;100654.53;5074840;28;20064;-63
2022/08/12 05:08:55;;;;;;;7.88;6.60;;;;;;;16.72;60.51;100654.66;5074687;28;20064;-63
2022/08/12 05:11:23;;;;;;;;;;;;;;;16.71;60.76;100655.81;5073634;28;20417;-63
2022/08/12 05:13:51;;;;;;;7.28;5.95;;;;;;;16.81;60.24;100659.00;5075474;28;19975;-63
2022/08/12 05:16:18;;;;;;;8.70;6.22;;;;;;;16.88;60.33;100654.78;5077188;28;20421;-63
2022/08/12 05:18:45;;;;;;;7.15;6.30;;;;;;;16.92;60.32;100652.88;5074474;28;20059;-63
2022/08/12 05:21:13;;;;;;;8.18;7.43;;;;;;;16.98;60.25;100652.28;5074506;28;20049;-63
2022/08/12 05:23:41;;;;;;;8.05;6.85;;;;;;;17.03;60.13;100643.63;5074461;28;20064;-63
2022/08/12 05:26:10;;;;;;;7.60;6.53;;;;;;;17.10;59.67;100647.84;5077105;28;20051;-63
2022/08/12 05:28:38;;;;;;;8.10;6.97;;;;;;;17.18;59.47;100649.72;5073885;28;20068;-63
2022/08/12 05:31:05;;;;;;;8.60;6.90;;;;;;;17.22;59.57;100648.63;5059276;28;20535;-63
2022/08/12 05:33:38;;;;;;;7.72;6.22;;;;;;;17.29;59.63;100648.03;5068675;28;20063;-63
2022/08/12 05:36:07;;;;;;;11.68;6.78;;;;;;;17.39;59.34;100653.16;5058632;28;20078;-63
2022/08/12 05:41:23;;;;;;;9.45;6.80;;;;;;;17.55;58.95;100652.41;5068017;28;20607;-63
2022/08/12 05:43:51;;;;;;;7.20;6.55;;;;;;;17.67;58.48;100658.00;5067720;28;20044;-62
2022/08/12 05:46:19;;;;;;;7.47;6.03;;;;;;;17.78;58.46;100664.75;5057738;28;20433;-63
2022/08/12 05:48:48;;;;;;;7.32;6.63;;;;;;;17.83;58.17;100664.53;5085307;28;20059;-63
2022/08/12 05:51:16;;;;;;;10.13;7.40;;;;;;;17.91;57.87;100662.75;5087050;28;20060;-63
2022/08/12 05:53:43;;;;;;;8.27;7.47;;;;;;;17.99;57.57;100666.56;5074048;28;20056;-63
2022/08/12 05:56:21;;;;;;;8.55;7.15;;;;;;;18.07;57.34;100662.75;5073506;28;20060;-63
2022/08/12 05:58:50;;;;;;;7.45;6.75;;;;;;;18.13;57.51;100666.16;5074514;28;20059;-62
2022/08/12 06:01:18;;;;;;;9.73;7.70;;;;;;;18.23;57.06;100676.91;5073119;28;20049;-61
2022/08/12 06:03:45;;;;;;;7.70;6.90;;;;;;;18.33;56.58;100665.09;5073893;28;20053;-61
2022/08/12 06:06:15;;;;;;;7.40;6.65;;;;;;;18.41;56.44;100660.44;5073643;28;20056;-62
2022/08/12 06:08:45;;;;;;;8.27;6.65;;;;;;;18.51;55.97;100664.72;5067289;28;20405;-62
2022/08/12 06:11:13;;;;;;;7.30;6.70;;;;;;;18.61;55.67;100659.34;5073061;28;20052;-62
2022/08/12 06:13:42;;;;;;;7.50;6.80;;;;;;;18.72;55.38;100661.63;5085380;28;20048;-62
2022/08/12 06:16:11;;;;;;;8.65;7.20;;;;;;;18.82;55.10;100658.28;5080633;28;20056;-62
2022/08/12 06:18:39;;;;;;;8.13;7.32;;;;;;;18.93;54.96;100662.16;5071865;28;20055;-62
2022/08/12 06:21:07;;;;;;;9.43;7.05;;;;;;;19.05;54.90;100661.25;5070914;28;20405;-62
2022/08/12 06:23:35;;;;;;;7.40;6.30;;;;;;;19.16;54.58;100661.50;5070689;28;20454;-62
2022/08/12 06:26:06;;;;;;;7.50;6.80;;;;;;;19.25;54.84;100659.25;5070678;28;20051;-62
2022/08/12 06:28:33;;;;;;;9.35;6.20;;;;;;;19.32;54.82;100659.44;5068921;28;20060;-62
2022/08/12 06:31:02;;;;;;;10.20;8.40;;;;;;;19.43;54.30;100665.31;5059436;28;20055;-61
2022/08/12 06:33:36;;;;;;;8.80;6.90;;;;;;;19.58;54.13;100660.78;5061154;28;20068;-62
2022/08/12 06:36:04;;;;;;;10.68;7.00;;;;;;;19.65;54.01;100666.59;5054699;28;20052;-63
2022/08/12 06:38:31;;;;;;;11.07;8.45;;;;;;;19.79;53.65;100669.75;5063665;28;20052;-61
2022/08/12 06:43:50;;;;;;;7.88;6.88;;;;;;;20.05;53.45;100668.22;5072206;28;20072;-59
2022/08/12 06:46:20;;;;;;;8.35;7.05;;;;;;;20.14;53.44;100656.66;5065660;28;20068;-60
2022/08/12 06:48:53;;;;;;;7.85;6.63;;;;;;;20.27;53.29;100663.81;5065457;28;20053;-59
2022/08/12 06:51:21;;;;;;;11.95;7.72;;;;;;;20.37;53.32;100660.34;5062901;28;20075;-59
2022/08/12 06:53:48;;;;;;;9.02;7.47;;;;;;;20.50;53.03;100660.97;5063372;28;20052;-59
2022/08/12 06:56:16;;;;;;;7.90;7.07;;;;;;;20.65;52.60;100657.22;5060993;28;20060;-58
2022/08/12 06:58:43;;;;;;;9.85;7.80;;;;;;;20.76;52.85;100656.59;5063134;28;20048;-60
2022/08/12 07:01:11;;;;;;;7.95;7.20;;;;;;;20.93;52.70;100655.22;5065852;28;20048;-60
2022/08/12 07:03:40;;;;;;;7.78;6.90;;;;;;;21.08;51.98;100660.75;5066891;28;20056;-59
2022/08/12 07:06:10;;;;;;;7.53;6.75;;;;;;;21.22;51.43;100656.47;5065901;28;20060;-59
2022/08/12 07:08:38;;;;;;;8.70;6.63;;;;;;;21.30;51.46;100652.53;5064913;28;20055;-60
2022/08/12 07:11:08;;;;;;;8.43;6.45;;;;;;;21.47;50.74;100646.31;5062242;28;20066;-59
2022/08/12 07:13:42;;;;;;;7.43;6.25;;;;;;;21.49;50.84;100651.63;5065609;28;20055;-59
2022/08/12 07:16:11;;;;;;;9.05;6.53;;;;;;;21.57;50.93;100661.03;5062965;28;20047;-59
2022/08/12 07:18:40;;;;;;;9.02;6.28;;;;;;;21.71;50.61;100654.72;5062803;28;20067;-59
2022/08/12 07:21:10;;;;;;;9.75;6.32;;;;;;;21.91;49.83;100647.66;5065493;28;20057;-60
2022/08/12 07:23:41;;;;;;;6.63;6.03;;;;;;;22.47;49.06;100655.16;5064779;28;20056;-62
2022/08/12 07:26:10;;;;;;;8.13;6.90;;;;;;;23.16;47.75;100652.88;5064586;28;20056;-62
2022/08/12 07:28:40;;;;;;;8.75;5.95;;;;;;;23.93;45.74;100655.72;5056460;28;20060;-62
2022/08/12 07:31:08;;;;;;;9.70;5.85;;;;;;;24.69;44.88;100658.31;5059747;28;20052;-62
2022/08/12 07:33:38;;;;;;;6.15;5.30;;;;;;;25.41;43.52;100658.22;5061937;28;20472;-62
2022/08/12 07:36:10;;;;;;;5.90;5.20;;;;;;;26.27;41.96;100657.84;5064084;28;20649;-62
2022/08/12 07:38:45;;;;;;;6.05;5.40;;;;;;;27.07;40.49;100658.84;5059646;28;20048;-62
2022/08/12 07:41:15;;;;;;;7.47;5.07;;;;;;;27.87;39.06;100659.59;5062903;28;20051;-62
2022/08/12 07:43:45;;;;;;;5.93;5.07;;;;;;;28.53;37.73;100661.09;5061860;28;20048;-62
2022/08/12 07:46:15;;;;;;;6.93;4.55;;;;;;;29.24;36.50;100658.25;5062597;28;20061;-62
2022/08/12 07:48:45;;;;;;;8.05;4.45;;;;;;;30.08;35.21;100652.44;5059902;28;20528;-62
2022/08/12 07:51:13;;;;;;;8.07;4.65;;;;;;;31.05;33.45;100644.34;5059349;28;20055;-61
2022/08/12 07:53:41;;;;;;;6.82;4.88;;;;;;;31.79;32.23;100648.44;5064806;28;20045;-60
2022/08/12 07:56:11;;;;;;;9.73;4.87;;;;;;;32.74;30.79;100640.09;5066467;28;20051;-61
2022/08/12 07:58:40;;;;;;;7.85;4.70;;;;;;;33.65;29.34;100644.31;5059811;28;20498;-60
2022/08/12 08:01:10;;;;;;;6.47;4.32;;;;;;;34.24;28.53;100644.50;5062220;28;20048;-61
2022/08/12 08:03:37;;;;;;;10.93;5.18;;;;;;;35.23;27.54;100632.06;5063783;28;20059;-61
2022/08/12 08:06:15;;;;;;;5.93;4.43;;;;;;;36.22;26.06;100640.28;5063760;28;20064;-62
2022/08/12 08:08:43;;;;;;;6.78;4.50;;;;;;;37.23;24.57;100636.00;5065143;28;20599;-61
2022/08/12 08:13:55;;;;;;;6.35;3.72;;;;;;;38.55;21.19;100636.53;5063342;28;20064;-62
2022/08/12 08:16:24;;;;;;;5.63;3.90;;;;;;;39.36;20.04;100640.00;5063139;28;20060;-62
2022/08/12 08:18:52;;;;;;;5.32;3.15;;;;;;;40.04;18.89;100629.03;5061288;28;20049;-62
2022/08/12 08:21:20;;;;;;;7.97;3.80;;;;;;;40.79;18.68;100635.72;5065789;28;20496;-62
2022/08/12 08:26:39;;;;;;;4.82;3.13;;;;;;;42.12;16.37;100632.09;5049446;28;20064;-60
2022/08/12 08:29:07;;;;;;;3.97;3.58;;;;;;;42.71;16.23;100630.94;5066239;28;20071;-60
2022/08/12 08:31:35;;;;;;;4.50;3.20;;;;;;;42.98;14.91;100631.41;5065412;28;20059;-61
2022/08/12 08:34:02;;;;;;;;;;;;;;;43.39;14.92;100642.44;5064653;28;20053;-60
2022/08/12 08:36:29;;;;;;;5.50;3.80;;;;;;;44.23;15.35;100629.31;5063598;28;19928;-61
2022/08/12 08:38:58;;;;;;;5.13;3.10;;;;;;;44.70;14.25;100629.09;5062386;28;20478;-62
2022/08/12 08:44:11;;;;;;;3.72;3.38;;;;;;;45.94;13.29;100632.47;5062141;28;20400;-62
2022/08/12 08:46:39;;;;;;;5.60;3.90;;;;;;;46.65;12.55;100622.09;5058816;28;20416;-61
2022/08/12 08:49:07;;;;;;;6.65;3.80;;;;;;;47.00;12.04;100622.22;5061277;28;20052;-62
2022/08/12 08:51:35;;;;;;;5.47;4.45;;;;;;;47.55;11.75;100617.25;5061972;28;20507;-62
2022/08/12 08:54:05;;;;;;;5.10;4.60;;;;;;;48.35;11.22;100622.75;5061174;28;20273;-61
2022/08/12 08:56:33;;;;;;;4.32;3.60;;;;;;;48.92;10.68;100618.19;5059973;28;20401;-61
2022/08/12 08:59:00;;;;;;;6.97;5.10;;;;;;;49.43;10.43;100613.72;5063702;28;20049;-61
2022/08/12 09:01:29;;;;;;;4.93;4.43;;;;;;;49.16;9.14;100616.94;5061344;28;20390;-62
2022/08/12 09:03:56;;;;;;;4.13;3.78;;;;;;;49.56;8.68;100619.44;5057580;28;20412;-61
2022/08/12 09:06:24;;;;;;;3.10;2.53;;;;;;;49.65;8.22;100606.25;5063199;28;20488;-59
2022/08/12 09:08:51;;;;;;;3.58;2.50;;;;;;;49.56;8.36;100607.59;5065303;28;20476;-58
2022/08/12 09:14:06;;;;;;;5.07;3.53;;;;;;;50.46;8.09;100609.69;5041344;28;20327;-60
2022/08/12 09:16:37;;;;;;;5.65;5.18;;;;;;;50.70;7.85;100605.28;5061623;28;20052;-59
2022/08/12 09:19:05;;;;;;;6.10;5.47;;;;;;;49.29;8.10;100622.72;5066662;28;20433;-59
2022/08/12 09:21:32;;;;;;;4.90;4.50;;;;;;;48.85;8.29;100613.00;5068162;28;20520;-59
2022/08/12 09:23:59;;;;;;;4.28;3.97;;;;;;;49.35;8.21;100607.75;5066600;28;20500;-58
2022/08/12 09:26:28;;;;;;;3.03;2.83;;;;;;;50.66;7.44;100602.72;5063073;28;20447;-58
2022/08/12 09:28:56;;;;;;;5.15;4.75;;;;;;;50.99;7.38;100596.88;5067815;28;20044;-61
2022/08/12 09:31:24;;;;;;;4.82;4.50;;;;;;;50.82;7.96;100596.75;5066654;28;20057;-61
2022/08/12 09:33:51;;;;;;;5.70;5.30;;;;;;;49.68;8.23;100590.25;5060272;28;20048;-60
2022/08/12 09:36:22;;;;;;;3.60;3.15;;;;;;;50.85;7.80;100593.38;5064048;28;20068;-60
2022/08/12 09:38:49;;;;;;;5.05;4.63;;;;;;;49.64;8.09;100598.75;5064456;28;20056;-60
2022/08/12 09:41:17;;;;;;;4.65;4.03;;;;;;;50.50;7.93;100598.19;5058744;28;20045;-60
2022/08/12 09:46:31;;;;;;;4.90;4.60;;;;;;;48.91;7.83;100595.91;5062830;28;20063;-60
2022/08/12 09:48:59;;;;;;;6.30;5.80;;;;;;;49.47;7.86;100578.59;5069777;28;20130;-60
2022/08/12 09:51:27;;;;;;;5.53;4.07;;;;;;;49.52;7.60;100577.59;5065143;28;20083;-60
2022/08/12 09:53:54;;;;;;;5.10;4.70;;;;;;;49.13;7.95;100594.44;5063079;28;20075;-60
2022/08/12 09:56:22;;;;;;;4.60;4.15;;;;;;;48.14;8.35;100595.38;5068815;28;20056;-60
2022/08/12 09:58:52;;;;;;;4.97;4.03;;;;;;;47.41;9.06;100583.22;5067984;28;20052;-59
2022/08/12 10:01:19;;;;;;;4.18;3.50;;;;;;;48.29;8.38;100588.81;5064112;28;20064;-59
2022/08/12 10:03:48;;;;;;;6.40;3.88;;;;;;;48.37;8.79;100572.72;5068030;28;20063;-60
2022/08/12 10:06:15;;;;;;;4.28;3.88;;;;;;;49.89;7.97;100570.16;5070386;28;20048;-60
2022/08/12 10:08:43;;;;;;;4.68;3.72;;;;;;;49.98;8.04;100565.81;5068735;28;20056;-60
2022/08/12 10:13:57;;;;;;;5.30;4.90;;;;;;;49.09;8.22;100565.25;5069912;28;20067;-61
2022/08/12 10:16:27;;;;;;;3.63;3.33;;;;;;;47.71;8.49;100570.16;5069072;28;20052;-61
2022/08/12 10:18:56;;;;;;;5.28;3.88;;;;;;;47.91;8.51;100566.44;5068314;28;20067;-60
2022/08/12 10:21:24;;;;;;;4.38;4.07;;;;;;;47.67;8.27;100570.53;5069819;28;20059;-61
2022/08/12 10:23:52;;;;;;;3.63;3.13;;;;;;;47.34;8.46;100563.28;5068280;28;20061;-61
2022/08/12 10:31:54;;;;;;;5.18;4.63;;;;;;;48.10;8.30;100562.47;5064420;28;20528;-61
2022/08/12 10:34:24;;;;;;;3.97;3.67;;;;;;;47.19;8.41;100552.09;5066049;28;20412;-60
2022/08/12 10:36:54;;;;;;;5.20;3.88;;;;;;;46.73;8.81;100552.28;5063771;28;21443;-59
2022/08/12 10:39:24;;;;;;;3.13;2.58;;;;;;;46.89;9.12;100541.47;5061770;28;20075;-60
2022/08/12 10:44:38;;;;;;;4.47;3.92;;;;;;;47.88;8.42;100541.00;5070578;28;20067;-60
2022/08/12 10:47:05;;;;;;;5.25;4.80;;;;;;;48.20;8.23;100539.06;5067545;28;20485;-60
2022/08/12 10:49:35;;;;;;;4.40;4.00;;;;;;;48.13;8.19;100528.78;5071843;28;20060;-60
2022/08/12 10:52:03;;;;;;;4.07;3.65;;;;;;;48.37;7.85;100531.34;5071569;28;20048;-59
2022/08/12 10:54:31;;;;;;;4.45;4.05;;;;;;;46.52;8.43;100528.59;5081336;28;20056;-60
2022/08/12 10:57:00;;;;;;;3.55;3.00;;;;;;;46.83;8.87;100526.06;5091510;28;20511;-60
2022/08/12 10:59:28;;;;;;;4.38;3.97;;;;;;;47.98;8.08;100524.34;5090467;28;20056;-59
2022/08/12 11:01:59;;;;;;;4.75;4.30;;;;;;;46.74;8.40;100524.38;5069557;28;20091;-60
2022/08/12 11:04:29;;;;;;;5.13;3.90;;;;;;;46.29;8.52;100503.91;5055777;28;20512;-59
2022/08/12 11:06:58;;;;;;;3.97;3.58;;;;;;;46.58;8.77;100508.66;5059896;28;20053;-59
2022/08/12 11:09:30;;;;;;;3.25;2.95;;;;;;;47.07;9.01;100513.19;5066916;28;20053;-59
2022/08/12 11:11:58;;;;;;;4.18;3.88;;;;;;;48.53;8.16;100514.50;5061453;28;20056;-59
2022/08/12 11:14:30;;;;;;;4.72;4.15;;;;;;;47.72;7.93;100495.00;5067922;28;20067;-58
2022/08/12 11:16:59;;;;;;;2.65;2.45;;;;;;;49.29;7.77;100492.50;5061713;28;20056;-58
2022/08/12 11:19:27;;;;;;;3.88;3.03;;;;;;;49.80;7.36;100484.88;5066804;28;20412;-59
2022/08/12 11:21:55;;;;;;;5.47;3.80;;;;;;;50.37;7.06;100478.44;5062062;28;20072;-59
2022/08/12 11:24:23;;;;;;;7.25;4.07;;;;;;;51.09;6.62;100476.16;5062293;28;20044;-59
2022/08/12 11:26:50;;;;;;;3.30;3.10;;;;;;;51.40;6.52;100467.06;5063455;28;20505;-58
2022/08/12 11:29:18;;;;;;;5.55;4.07;;;;;;;51.79;6.25;100463.78;5064682;28;20060;-59
2022/08/12 11:31:45;;;;;;;4.93;4.45;;;;;;;51.44;6.31;100467.41;5064434;28;21381;-57
2022/08/12 11:34:15;;;;;;;4.28;3.90;;;;;;;51.35;6.98;100471.06;5066004;28;20056;-57
2022/08/12 11:36:50;;;;;;;5.20;4.32;;;;;;;50.66;6.69;100463.34;5061603;28;20061;-58
2022/08/12 11:39:21;;;;;;;4.28;3.75;;;;;;;50.50;6.92;100468.53;5064868;28;20560;-57
2022/08/12 11:41:48;;;;;;;4.18;3.78;;;;;;;50.95;6.71;100466.75;5064423;28;20081;-58
2022/08/12 11:44:17;;;;;;;5.15;2.97;;;;;;;51.59;6.39;100468.72;5066944;28;20061;-58
2022/08/12 11:46:45;;;;;;;3.15;2.90;;;;;;;52.34;6.26;100457.44;5062631;28;20060;-58
2022/08/12 11:49:14;;;;;;;6.00;5.43;;;;;;;52.71;5.89;100463.56;5063389;28;20059;-58
2022/08/12 11:51:41;;;;;;;4.15;3.65;;;;;;;52.74;6.03;100462.31;5063988;28;20055;-57
2022/08/12 11:54:08;;;;;;;4.93;2.78;;;;;;;53.01;5.83;100449.66;5062089;28;20056;-58
2022/08/12 11:56:36;;;;;;;4.35;3.95;;;;;;;52.47;6.16;100456.31;5064708;28;20049;-58
2022/08/12 11:59:03;;;;;;;4.93;3.67;;;;;;;52.89;5.66;100449.41;5061273;28;20049;-58
2022/08/12 12:01:30;;;;;;;3.60;3.33;;;;;;;52.93;5.66;100443.03;5061591;28;20477;-58
2022/08/12 12:03:58;;;;;;;4.32;3.92;;;;;;;52.73;5.88;100442.09;5059726;28;20055;-58
2022/08/12 12:06:26;;;;;;;4.75;4.22;;;;;;;52.30;6.04;100444.44;5064268;28;20056;-58
2022/08/12 12:08:54;;;;;;;4.28;3.97;;;;;;;52.43;6.13;100437.34;5063117;28;20048;-58
2022/08/12 12:11:22;;;;;;;3.80;3.15;;;;;;;51.40;6.36;100446.25;5064843;28;20056;-57
2022/08/12 12:13:49;;;;;;;5.57;5.18;;;;;;;51.08;6.72;100438.97;5066225;28;20056;-57
2022/08/12 12:16:17;;;;;;;8.80;5.95;;;;;;;50.46;6.50;100443.66;5057935;28;20056;-57
2022/08/12 12:18:45;;;;;;;3.42;3.13;;;;;;;50.72;6.69;100433.47;5063191;28;20483;-57
2022/08/12 12:21:12;;;;;;;3.40;2.95;;;;;;;50.88;6.75;100440.09;5061598;28;20413;-57
2022/08/12 12:23:41;;;;;;;4.30;3.72;;;;;;;50.97;6.99;100436.50;5063796;28;20059;-57
2022/08/12 12:26:08;;;;;;;4.45;3.83;;;;;;;51.25;6.61;100431.56;5063350;28;20049;-57
2022/08/12 12:28:40;;;;;;;4.43;3.92;;;;;;;50.81;6.66;100432.81;5063923;28;20056;-57
2022/08/12 12:31:07;;;;;;;5.10;4.60;;;;;;;49.32;6.97;100428.38;5061473;28;20051;-57
2022/08/12 12:33:35;;;;;;;3.53;3.22;;;;;;;49.84;7.19;100417.13;5061924;28;20048;-57
2022/08/12 12:36:03;;;;;;;5.78;3.70;;;;;;;49.87;7.33;100415.94;5063297;28;20501;-57
2022/08/12 12:38:30;;;;;;;4.68;3.88;;;;;;;49.36;7.07;100422.88;5058764;28;20060;-58
2022/08/12 12:40:59;;;;;;;4.07;3.38;;;;;;;49.31;7.31;100420.88;5061716;28;20040;-57
2022/08/12 12:43:26;;;;;;;3.63;2.65;;;;;;;48.77;7.54;100409.75;5061189;28;20060;-57
2022/08/12 12:45:55;;;;;;;3.15;2.70;;;;;;;48.83;7.52;100405.81;5057919;28;20488;-57
2022/08/12 12:48:23;;;;;;;4.20;3.80;;;;;;;47.64;7.98;100417.41;5060400;28;20063;-57
2022/08/12 12:51:14;;;;;;;;;;;;;;;46.72;8.59;100414.28;5068055;28;20059;-56
2022/08/12 12:53:40;;;;;;;3.97;3.67;;;;;;;46.71;8.19;100419.41;5065836;28;19920;-56
2022/08/12 12:56:14;;;;;;;3.17;2.13;;;;;;;47.01;8.39;100408.53;5066430;28;20421;-58
2022/08/12 12:58:42;;;;;;;3.55;2.35;;;;;;;47.23;8.24;100398.34;5068044;28;20053;-57
2022/08/12 13:01:12;;;;;;;4.28;3.67;;;;;;;47.18;8.09;100400.06;5064073;28;20040;-57
2022/08/12 13:03:40;;;;;;;3.30;2.88;;;;;;;47.57;7.92;100396.09;5065331;28;20052;-57
2022/08/12 13:06:07;;;;;;;3.42;3.03;;;;;;;47.10;8.27;100391.09;5067922;28;20059;-57
2022/08/12 13:08:35;;;;;;;3.10;2.90;;;;;;;47.30;8.41;100382.88;5068808;28;20990;-58
2022/08/12 13:11:04;;;;;;;3.15;2.50;;;;;;;46.70;8.44;100393.44;5066990;28;20045;-58
2022/08/12 13:13:35;;;;;;;3.88;3.58;;;;;;;46.63;8.31;100392.00;5064401;28;20052;-57
2022/08/12 13:16:03;;;;;;;4.50;2.38;;;;;;;46.58;8.71;100389.97;5065315;28;20064;-58
2022/08/12 13:18:35;;;;;;;4.50;3.28;;;;;;;46.11;8.45;100384.84;5064568;28;20052;-58
2022/08/12 13:21:04;;;;;;;3.95;3.08;;;;;;;44.81;9.18;100380.47;5066316;28;20060;-58
2022/08/12 13:23:31;;;;;;;2.72;2.50;;;;;;;44.10;9.72;100388.41;5065346;28;20063;-58
2022/08/12 13:25:59;;;;;;;;;;;;;;;43.30;10.56;100381.78;5064752;28;20063;-58
2022/08/12 13:28:28;;;;;;;3.28;2.33;;;;;;;43.88;10.49;100387.31;5065327;28;19920;-58
2022/08/12 13:30:58;;;;;;;4.45;3.03;;;;;;;44.18;10.14;100384.31;5057979;28;20057;-58
2022/08/12 13:33:26;;;;;;;3.65;2.70;;;;;;;44.27;9.75;100383.13;5063808;28;20056;-57